Time;durP1;ratioP1;P1;durP2;ratioP2;P2;SDS_P1;SDS_P2;PMS_P1;PMS_P2;Temp;Humidity;BMP_temperature;BMP_pressure;BME280_temperature;BME280_humidity;BME280_pressure;Samples;Min_cycle;Max_cycle;Signal;HPM_P1;HPM_P2
2023/08/08 00:02:23;;;;;;;11.88;4.82;;;12.80;99.90;;;;;;6276747;22;20069;-85
2023/08/08 00:04:54;;;;;;;9.50;4.28;;;12.80;99.90;;;;;;6276074;22;20016;-85
2023/08/08 00:07:20;;;;;;;9.13;4.50;;;14.10;99.90;;;;;;6276428;22;20375;-85
2023/08/08 00:09:51;;;;;;;9.82;4.22;;;12.90;99.90;;;;;;6249257;22;20047;-85
2023/08/08 00:12:17;;;;;;;10.68;4.45;;;12.90;99.90;;;;;;6277292;22;20015;-85
2023/08/08 00:15:05;;;;;;;10.32;4.57;;;12.90;99.90;;;;;;6249488;22;20023;-85
2023/08/08 00:17:41;;;;;;;;;;;;;;;;;;;;;
2023/08/08 00:20:16;;;;;;;10.32;4.43;;;12.90;99.90;;;;;;6275063;22;20054;-85
2023/08/08 00:23:35;;;;;;;10.32;4.60;;;14.00;99.90;;;;;;6248581;22;20020;-85
2023/08/08 00:26:22;;;;;;;10.48;4.43;;;12.90;99.90;;;;;;6227345;22;20019;-85
2023/08/08 00:28:50;;;;;;;8.80;4.32;;;12.90;99.90;;;;;;6249406;22;20111;-84
2023/08/08 00:31:34;;;;;;;12.68;4.80;;;12.30;99.90;;;;;;6247773;22;20065;-85
2023/08/08 00:34:22;;;;;;;9.95;4.60;;;12.80;99.90;;;;;;6249467;22;20029;-85
2023/08/08 00:36:47;;;;;;;10.07;4.75;;;13.20;99.90;;;;;;6276439;22;20058;-85
2023/08/08 00:39:30;;;;;;;11.38;4.75;;;13.90;99.90;;;;;;6276166;22;20017;-85
2023/08/08 00:42:42;;;;;;;10.38;4.80;;;13.20;99.90;;;;;;6249357;22;20020;-85
2023/08/08 00:45:20;;;;;;;9.85;4.60;;;12.90;99.90;;;;;;6275873;22;20016;-85
2023/08/08 00:47:46;;;;;;;12.98;5.00;;;13.50;99.90;;;;;;6276580;22;20008;-86
2023/08/08 00:50:35;;;;;;;12.30;4.97;;;12.90;99.90;;;;;;6249798;22;20094;-85
2023/08/08 00:53:01;;;;;;;10.48;4.40;;;12.90;99.90;;;;;;6248986;22;20024;-86
2023/08/08 00:55:40;;;;;;;12.05;4.70;;;13.90;99.90;;;;;;6249502;22;20099;-85
2023/08/08 00:58:06;;;;;;;11.30;4.78;;;12.90;99.90;;;;;;6276545;22;20027;-85
2023/08/08 01:01:01;;;;;;;11.90;4.85;;;12.80;99.90;;;;;;6248052;22;20343;-85
2023/08/08 01:03:30;;;;;;;11.27;5.07;;;12.80;99.90;;;;;;6182116;23;20013;-85
2023/08/08 01:06:27;;;;;;;11.68;5.25;;;12.80;99.90;;;;;;6157411;23;20519;-85
2023/08/08 01:09:46;;;;;;;12.23;5.40;;;12.90;99.90;;;;;;6232025;22;20019;-86
2023/08/08 01:12:15;;;;;;;11.32;5.05;;;12.60;99.90;;;;;;6248910;22;20024;-85
2023/08/08 01:15:08;;;;;;;13.30;5.15;;;12.80;99.90;;;;;;6248065;22;20094;-86
2023/08/08 01:17:46;;;;;;;11.27;5.75;;;12.40;99.90;;;;;;6166725;22;20076;-84
2023/08/08 01:23:41;;;;;;;12.05;5.53;;;12.90;99.90;;;;;;6244904;23;20027;-85
2023/08/08 01:26:28;;;;;;;12.05;5.55;;;12.80;99.90;;;;;;6170830;23;20022;-85
2023/08/08 01:28:54;;;;;;;10.50;5.50;;;12.90;99.90;;;;;;6217476;23;20012;-85
2023/08/08 01:31:26;;;;;;;12.88;5.75;;;12.90;99.90;;;;;;6296494;22;20048;-85
2023/08/08 01:33:52;;;;;;;11.77;5.20;;;12.90;99.90;;;;;;6269819;22;20022;-86
2023/08/08 01:37:09;;;;;;;11.18;5.50;;;13.00;99.90;;;;;;6278656;22;20011;-85
2023/08/08 01:39:58;;;;;;;10.50;5.25;;;12.90;99.90;;;;;;6156833;23;20053;-86
2023/08/08 01:42:43;;;;;;;10.38;5.18;;;14.00;99.90;;;;;;6181799;23;20052;-85
2023/08/08 01:45:12;;;;;;;12.15;5.15;;;13.00;99.90;;;;;;6218032;22;20027;-83
2023/08/08 01:47:59;;;;;;;13.23;5.90;;;14.10;99.90;;;;;;6304923;22;20073;-85
2023/08/08 01:51:15;;;;;;;12.20;5.30;;;13.80;99.90;;;;;;6278807;22;20015;-85
2023/08/08 01:54:32;;;;;;;12.15;5.10;;;13.00;99.90;;;;;;6278446;22;20351;-86
2023/08/08 01:57:26;;;;;;;10.95;5.65;;;13.10;99.90;;;;;;6277751;22;20104;-85
2023/08/08 02:00:36;;;;;;;12.50;5.18;;;13.20;99.90;;;;;;6306728;22;20136;-85
2023/08/08 02:03:22;;;;;;;12.57;5.47;;;13.10;99.90;;;;;;6278840;22;20064;-86
2023/08/08 02:08:18;;;;;;;12.90;5.20;;;13.10;99.90;;;;;;6276139;22;20020;-85
2023/08/08 02:11:34;;;;;;;12.75;5.20;;;13.10;99.90;;;;;;6248316;22;20570;-86
2023/08/08 02:14:20;;;;;;;11.63;5.32;;;12.60;99.90;;;;;;6126978;23;20053;-86
2023/08/08 02:17:03;;;;;;;11.75;5.53;;;12.80;99.90;;;;;;6274823;22;20018;-86
2023/08/08 02:22:11;;;;;;;12.50;5.20;;;13.20;99.90;;;;;;6305597;22;20030;-85
2023/08/08 02:24:39;;;;;;;13.43;5.70;;;12.60;99.90;;;;;;6274708;22;20023;-86
2023/08/08 02:27:23;;;;;;;13.15;5.20;;;13.20;99.90;;;;;;6276022;22;20388;-86
2023/08/08 02:30:09;;;;;;;14.02;5.70;;;13.20;99.90;;;;;;6248419;22;20020;-86
2023/08/08 02:32:38;;;;;;;13.23;5.75;;;12.60;99.90;;;;;;6273852;22;20456;-86
2023/08/08 02:35:31;;;;;;;13.57;5.57;;;12.90;99.90;;;;;;6248954;22;20026;-86
2023/08/08 02:37:57;;;;;;;12.55;5.55;;;13.20;99.90;;;;;;6240870;22;20027;-86
2023/08/08 02:40:44;;;;;;;12.82;5.65;;;13.20;99.90;;;;;;6249007;22;20099;-85
2023/08/08 02:43:38;;;;;;;13.75;6.03;;;13.20;99.90;;;;;;6250837;22;20020;-86
2023/08/08 02:46:25;;;;;;;15.18;5.85;;;13.20;99.90;;;;;;6289350;22;20030;-83
2023/08/08 02:48:51;;;;;;;14.60;6.28;;;12.50;99.90;;;;;;6308282;22;20091;-86
2023/08/08 02:51:31;;;;;;;13.07;5.60;;;14.40;99.90;;;;;;6280853;22;20050;-85
2023/08/08 02:54:03;;;;;;;19.00;6.28;;;14.30;99.90;;;;;;6305755;22;20019;-86
2023/08/08 02:56:29;;;;;;;15.10;5.63;;;13.10;99.90;;;;;;6271177;22;20019;-86
2023/08/08 02:59:09;;;;;;;15.35;6.18;;;12.70;99.90;;;;;;6279904;22;20038;-86
2023/08/08 03:01:54;;;;;;;15.07;5.95;;;13.10;99.90;;;;;;6306691;22;20011;-86
2023/08/08 03:04:41;;;;;;;14.70;6.15;;;13.10;99.90;;;;;;6308981;22;20027;-86
2023/08/08 03:07:58;;;;;;;14.65;6.07;;;13.20;99.90;;;;;;6277188;22;20369;-86
2023/08/08 03:13:33;;;;;;;13.95;5.75;;;13.50;99.90;;;;;;6280067;22;20504;-85
2023/08/08 03:16:44;;;;;;;14.88;5.90;;;13.40;99.90;;;;;;6306669;22;20015;-86
2023/08/08 03:19:35;;;;;;;15.55;6.05;;;12.90;99.90;;;;;;6281006;22;20102;-86
2023/08/08 03:22:10;;;;;;;13.85;6.00;;;13.40;99.90;;;;;;6278163;22;20011;-85
2023/08/08 03:24:36;;;;;;;13.55;6.03;;;14.60;99.90;;;;;;6306704;22;20018;-86
2023/08/08 03:27:20;;;;;;;13.45;6.03;;;13.30;99.90;;;;;;6277922;22;20016;-86
2023/08/08 03:30:04;;;;;;;15.73;6.30;;;14.40;99.90;;;;;;6277231;22;20019;-86
2023/08/08 03:32:55;;;;;;;13.48;6.05;;;13.40;99.90;;;;;;6280564;22;20019;-85
2023/08/08 03:35:51;;;;;;;13.95;6.15;;;13.40;99.90;;;;;;6279790;22;20069;-86
2023/08/08 03:38:20;;;;;;;15.52;6.60;;;13.30;99.90;;;;;;6308685;22;20455;-86
2023/08/08 03:40:45;;;;;;;14.48;6.00;;;13.40;99.90;;;;;;6308171;22;20082;-86
2023/08/08 03:43:25;;;;;;;12.30;5.47;;;13.30;99.90;;;;;;6275790;22;20036;-83
2023/08/08 03:46:19;;;;;;;17.77;6.13;;;13.20;99.90;;;;;;6280293;22;20030;-83
2023/08/08 03:48:54;;;;;;;13.52;6.35;;;13.10;99.90;;;;;;6306969;22;20045;-86
2023/08/08 03:51:23;;;;;;;13.18;5.10;;;13.60;99.90;;;;;;6308099;22;20397;-86
2023/08/08 03:54:03;;;;;;;14.98;6.15;;;13.30;99.90;;;;;;6253409;22;20015;-86
2023/08/08 03:56:47;;;;;;;11.40;5.00;;;14.50;99.90;;;;;;6280176;22;20015;-86
2023/08/08 03:59:13;;;;;;;16.17;6.10;;;13.30;99.90;;;;;;6281198;22;20023;-86
2023/08/08 04:01:42;;;;;;;13.60;5.22;;;13.30;99.90;;;;;;6306576;22;20068;-85
2023/08/08 04:04:10;;;;;;;14.23;5.47;;;13.50;99.90;;;;;;6307185;22;20015;-86
2023/08/08 04:06:47;;;;;;;13.75;5.22;;;13.30;99.90;;;;;;6295584;22;20023;-86
2023/08/08 04:10:27;;;;;;;16.17;4.70;;;13.30;99.90;;;;;;6306805;22;20355;-86
2023/08/08 04:13:11;;;;;;;14.05;5.00;;;13.30;99.90;;;;;;6183014;23;20627;-86
2023/08/08 04:16:30;;;;;;;14.27;4.78;;;13.90;99.90;;;;;;6183532;23;20512;-86
2023/08/08 04:19:03;;;;;;;11.77;5.05;;;12.50;99.90;;;;;;6182949;23;20064;-86
2023/08/08 04:21:43;;;;;;;11.02;4.95;;;13.00;99.90;;;;;;6158127;23;20020;-85
2023/08/08 04:24:30;;;;;;;13.52;5.15;;;13.00;99.90;;;;;;6157935;23;20100;-85
2023/08/08 04:27:17;;;;;;;12.18;4.90;;;13.00;99.90;;;;;;6182791;23;20456;-86
2023/08/08 04:29:55;;;;;;;11.35;4.93;;;13.40;99.90;;;;;;6182973;23;20020;-86
2023/08/08 04:32:43;;;;;;;13.45;4.70;;;14.00;99.90;;;;;;6157135;23;20100;-86
2023/08/08 04:35:32;;;;;;;14.38;5.03;;;12.90;99.90;;;;;;6166181;22;20041;-86
2023/08/08 04:39:20;;;;;;;13.93;5.10;;;12.80;99.90;;;;;;6306805;22;20023;-86
2023/08/08 04:42:00;;;;;;;12.93;4.93;;;12.90;99.90;;;;;;6231673;22;20093;-86
2023/08/08 04:51:06;;;;;;;13.40;4.68;;;12.80;99.90;;;;;;6290112;22;20470;-86
2023/08/08 04:53:53;;;;;;;12.55;4.88;;;12.80;99.90;;;;;;6281814;22;20066;-86
2023/08/08 04:56:30;;;;;;;13.27;4.90;;;12.80;99.90;;;;;;6308796;22;20015;-86
2023/08/08 04:59:23;;;;;;;14.77;4.65;;;12.80;99.90;;;;;;6310641;22;20062;-86
2023/08/08 05:01:48;;;;;;;11.68;4.30;;;12.10;99.90;;;;;;6287762;22;20022;-85
2023/08/08 05:05:01;;;;;;;12.77;5.18;;;13.30;99.90;;;;;;6282923;22;20015;-86
2023/08/08 05:07:27;;;;;;;14.50;4.50;;;12.80;99.90;;;;;;6278956;22;20019;-85
2023/08/08 05:10:09;;;;;;;14.77;4.65;;;13.80;99.90;;;;;;6279664;22;20015;-86
2023/08/08 05:12:57;;;;;;;9.45;4.22;;;12.90;99.90;;;;;;6278985;22;20019;-85
2023/08/08 05:15:43;;;;;;;11.77;4.40;;;12.40;99.90;;;;;;6279590;22;20023;-86
2023/08/08 05:18:29;;;;;;;10.45;4.60;;;13.40;99.90;;;;;;6280191;22;20331;-86
2023/08/08 05:21:09;;;;;;;11.15;4.25;;;13.80;99.90;;;;;;6279180;22;20050;-85
2023/08/08 05:23:50;;;;;;;10.80;4.05;;;13.40;99.90;;;;;;6306406;22;20335;-86
2023/08/08 05:26:17;;;;;;;11.65;3.55;;;13.20;99.90;;;;;;6306883;22;20417;-87
2023/08/08 05:29:01;;;;;;;11.32;3.90;;;13.30;99.90;;;;;;6307435;22;20038;-86
2023/08/08 05:31:54;;;;;;;14.65;3.83;;;13.30;99.90;;;;;;6279725;22;20597;-86
2023/08/08 05:34:38;;;;;;;12.65;3.72;;;13.40;99.90;;;;;;6192420;22;20017;-86
2023/08/08 05:37:15;;;;;;;10.60;3.90;;;13.50;99.90;;;;;;6307588;22;20086;-86
2023/08/08 05:39:41;;;;;;;9.10;3.13;;;13.00;99.90;;;;;;6280493;22;20047;-86
2023/08/08 05:42:24;;;;;;;11.50;3.40;;;13.70;99.90;;;;;;6306308;22;20073;-86
2023/08/08 05:45:06;;;;;;;12.35;3.47;;;13.80;99.90;;;;;;6279703;22;20015;-86
2023/08/08 05:47:54;;;;;;;12.00;3.00;;;13.90;99.90;;;;;;6306467;22;20023;-86
2023/08/08 05:50:45;;;;;;;11.38;3.17;;;14.00;99.90;;;;;;6293772;22;20086;-86
2023/08/08 05:53:38;;;;;;;7.97;2.58;;;14.10;99.90;;;;;;6247874;22;20020;-86
2023/08/08 05:56:14;;;;;;;;;;;;;;;;;;;;;
2023/08/08 06:00:11;;;;;;;;;;;;;;;;;;;;;
2023/08/08 06:10:29;;;;;;;;;;;;;;;;;;;;;
2023/08/08 06:16:35;;;;;;;7.82;2.20;;;14.60;99.90;;;;;;6299472;22;20053;-83
2023/08/08 06:19:01;;;;;;;11.20;2.85;;;14.50;99.90;;;;;;6156508;23;20021;-82
2023/08/08 06:21:30;;;;;;;7.80;2.30;;;14.50;99.90;;;;;;6260639;22;20023;-83
2023/08/08 06:24:04;;;;;;;11.50;2.80;;;14.40;99.90;;;;;;6305280;22;20011;-85
2023/08/08 06:26:33;;;;;;;10.07;2.35;;;14.40;99.90;;;;;;6279413;22;20459;-85
2023/08/08 06:29:02;;;;;;;9.77;2.38;;;14.30;99.90;;;;;;6279298;22;20015;-84
2023/08/08 06:31:33;;;;;;;10.75;2.60;;;14.30;99.90;;;;;;6278627;22;20022;-82
2023/08/08 06:34:15;;;;;;;8.63;2.25;;;14.40;99.90;;;;;;6279206;22;20015;-83
2023/08/08 06:36:43;;;;;;;10.95;3.15;;;14.40;99.90;;;;;;6305844;22;20061;-85
2023/08/08 06:39:11;;;;;;;9.20;2.45;;;14.50;99.90;;;;;;6279247;22;20065;-85
2023/08/08 06:41:45;;;;;;;7.35;2.20;;;14.20;99.90;;;;;;6306746;22;20045;-85
2023/08/08 06:44:10;;;;;;;10.35;2.03;;;14.50;99.90;;;;;;6306255;22;20046;-85
2023/08/08 06:46:45;;;;;;;10.82;2.30;;;15.90;99.90;;;;;;6306781;22;20019;-86
2023/08/08 06:49:23;;;;;;;8.52;2.22;;;14.80;99.90;;;;;;6307065;22;20018;-84
2023/08/08 06:51:48;;;;;;;8.65;2.10;;;14.90;99.90;;;;;;6277697;22;20041;-84
2023/08/08 06:54:23;;;;;;;9.88;2.28;;;15.00;99.90;;;;;;6303974;22;20016;-83
2023/08/08 06:56:49;;;;;;;9.50;2.10;;;15.10;99.90;;;;;;6278878;22;20013;-84
2023/08/08 06:59:26;;;;;;;9.50;2.58;;;15.90;99.90;;;;;;6304167;22;20339;-83
2023/08/08 07:02:07;;;;;;;7.45;2.00;;;15.30;99.90;;;;;;6278195;22;20015;-84
2023/08/08 07:04:38;;;;;;;9.48;2.00;;;16.30;99.90;;;;;;6279256;22;20013;-83
2023/08/08 07:07:04;;;;;;;9.38;2.15;;;16.40;99.90;;;;;;6305870;22;20106;-83
2023/08/08 07:09:30;;;;;;;9.30;1.92;;;15.50;99.90;;;;;;6306592;22;20004;-84
2023/08/08 07:12:08;;;;;;;10.13;2.05;;;15.60;99.90;;;;;;6278225;22;20059;-84
2023/08/08 07:14:49;;;;;;;10.18;2.45;;;15.70;99.90;;;;;;6278207;22;20090;-84
2023/08/08 07:17:30;;;;;;;8.13;2.13;;;15.90;99.90;;;;;;6279039;22;20451;-84
2023/08/08 07:19:56;;;;;;;13.75;2.10;;;15.80;99.90;;;;;;6304839;22;20012;-83
2023/08/08 07:22:47;;;;;;;8.32;2.08;;;16.00;99.90;;;;;;6305749;22;20084;-84
2023/08/08 07:25:16;;;;;;;9.88;2.17;;;16.20;99.90;;;;;;6306547;22;20606;-84
2023/08/08 07:27:45;;;;;;;7.07;2.08;;;16.20;99.90;;;;;;6277706;22;20061;-85
2023/08/08 07:30:29;;;;;;;7.53;1.90;;;16.30;99.90;;;;;;6253403;22;20042;-83
2023/08/08 07:33:09;;;;;;;6.65;1.90;;;16.30;99.90;;;;;;6307765;22;20007;-85
2023/08/08 07:35:35;;;;;;;8.15;2.15;;;16.50;99.90;;;;;;6279625;22;20023;-83
2023/08/08 07:38:16;;;;;;;7.28;2.22;;;16.60;99.90;;;;;;6304293;22;20011;-84
2023/08/08 07:40:42;;;;;;;7.07;2.25;;;16.70;99.90;;;;;;6307093;22;20332;-83
2023/08/08 07:43:12;;;;;;;8.38;2.00;;;16.80;99.90;;;;;;6308157;22;20015;-85
2023/08/08 07:45:41;;;;;;;7.07;1.80;;;16.70;99.90;;;;;;6272686;22;20015;-84
2023/08/08 07:48:24;;;;;;;6.88;1.90;;;17.30;99.90;;;;;;6152208;23;20448;-84
2023/08/08 07:50:50;;;;;;;6.50;1.83;;;16.80;99.90;;;;;;6152617;23;20022;-85
2023/08/08 07:53:15;;;;;;;10.40;1.95;;;16.80;99.90;;;;;;6216440;22;20090;-84
2023/08/08 07:55:41;;;;;;;8.00;1.80;;;17.40;99.90;;;;;;6275498;22;20019;-85
2023/08/08 07:58:07;;;;;;;6.65;1.92;;;16.80;99.90;;;;;;6276096;22;20050;-85
2023/08/08 08:00:33;;;;;;;6.25;1.50;;;17.00;99.90;;;;;;6275410;22;20020;-84
2023/08/08 08:02:58;;;;;;;5.10;1.50;;;17.10;99.90;;;;;;6274008;22;20019;-84
2023/08/08 08:05:24;;;;;;;5.60;1.70;;;17.20;99.90;;;;;;6274709;22;20015;-84
2023/08/08 08:07:50;;;;;;;7.63;1.90;;;17.60;99.90;;;;;;6248842;22;20024;-84
2023/08/08 08:10:19;;;;;;;9.13;2.10;;;17.70;99.90;;;;;;6273859;22;20339;-83
2023/08/08 08:12:48;;;;;;;6.40;1.70;;;17.40;99.90;;;;;;6274807;22;20019;-85
2023/08/08 08:15:13;;;;;;;7.20;1.80;;;17.40;99.90;;;;;;6248371;22;20103;-84
2023/08/08 08:17:39;;;;;;;10.15;1.83;;;17.50;99.90;;;;;;6249545;22;20043;-85
2023/08/08 08:20:10;;;;;;;6.30;1.80;;;17.60;99.90;;;;;;6249363;22;20020;-84
2023/08/08 08:26:34;;;;;;;5.97;1.67;;;17.40;99.90;;;;;;6153817;23;20029;-87
2023/08/08 08:33:16;;;;;;;6.05;1.80;;;17.60;99.90;;;;;;6279120;22;20019;-87
2023/08/08 08:36:01;;;;;;;6.63;1.70;;;17.60;99.90;;;;;;6279562;22;20064;-87
2023/08/08 08:39:13;;;;;;;6.40;1.80;;;17.80;99.90;;;;;;6306403;22;20335;-86
2023/08/08 08:42:04;;;;;;;7.80;2.00;;;17.50;99.90;;;;;;6276894;22;20011;-86
2023/08/08 08:51:40;;;;;;;7.82;1.73;;;17.50;99.90;;;;;;6297497;22;20069;-87
2023/08/08 08:54:15;;;;;;;4.88;1.50;;;17.60;99.90;;;;;;6278064;22;20019;-86
2023/08/08 09:00:28;;;;;;;6.03;1.58;;;18.00;99.90;;;;;;6279570;22;20022;-85
2023/08/08 09:03:01;;;;;;;7.18;1.65;;;18.00;99.90;;;;;;6307023;22;20015;-85
2023/08/08 09:05:27;;;;;;;7.05;1.90;;;18.10;99.90;;;;;;6304776;22;20378;-84
2023/08/08 09:07:52;;;;;;;5.28;1.63;;;18.20;99.90;;;;;;6307595;22;20015;-85
2023/08/08 09:10:30;;;;;;;7.68;1.70;;;18.20;99.90;;;;;;6279491;22;20051;-84
2023/08/08 09:13:05;;;;;;;8.50;1.85;;;18.20;99.90;;;;;;6306518;22;20018;-87
2023/08/08 09:19:00;;;;;;;9.07;1.80;;;17.80;99.90;;;;;;6180161;23;20025;-86
2023/08/08 09:21:44;;;;;;;5.95;1.80;;;17.90;99.90;;;;;;6287487;22;20015;-88
2023/08/08 09:24:56;;;;;;;;;;;18.10;99.90;;;;;;6306778;22;20435;-86
2023/08/08 09:27:37;;;;;;;7.97;1.70;;;18.00;99.90;;;;;;6277709;22;19964;-86
2023/08/08 09:30:04;;;;;;;8.18;2.17;;;18.10;99.90;;;;;;6307364;22;20143;-85
2023/08/08 09:32:46;;;;;;;5.57;1.60;;;18.30;99.90;;;;;;6255893;22;20030;-83
2023/08/08 09:39:00;;;;;;;8.57;1.80;;;18.10;99.90;;;;;;6307760;22;20141;-86
2023/08/08 09:41:40;;;;;;;5.63;1.58;;;18.50;99.90;;;;;;6306472;22;20011;-86
2023/08/08 09:44:29;;;;;;;6.25;1.58;;;18.60;99.90;;;;;;6279594;22;20077;-87
2023/08/08 09:47:12;;;;;;;6.30;1.60;;;19.00;99.90;;;;;;6278347;22;20022;-86
2023/08/08 09:49:53;;;;;;;5.47;1.70;;;18.40;99.90;;;;;;6279522;22;20019;-86
2023/08/08 09:52:20;;;;;;;7.55;1.70;;;18.40;99.90;;;;;;6306423;22;20011;-87
2023/08/08 09:55:02;;;;;;;6.50;1.90;;;18.20;99.90;;;;;;6278037;22;20023;-86
2023/08/08 09:57:32;;;;;;;7.97;1.97;;;17.80;99.90;;;;;;6306870;22;20464;-86
2023/08/08 10:00:15;;;;;;;7.15;1.85;;;17.70;99.90;;;;;;6278712;22;20015;-86
2023/08/08 10:02:53;;;;;;;6.10;1.75;;;17.50;99.90;;;;;;6277612;22;20023;-86
2023/08/08 10:05:32;;;;;;;5.72;1.70;;;17.30;99.90;;;;;;6277827;22;20077;-85
2023/08/08 10:08:04;;;;;;;7.72;1.80;;;17.20;99.90;;;;;;6303512;22;20015;-86
2023/08/08 10:10:42;;;;;;;7.03;1.80;;;17.30;99.90;;;;;;6279147;22;20085;-86
2023/08/08 10:13:10;;;;;;;6.20;1.77;;;17.40;99.90;;;;;;6307141;22;20016;-85
2023/08/08 10:15:46;;;;;;;8.38;1.80;;;17.80;99.90;;;;;;6277700;22;20319;-84
2023/08/08 10:18:13;;;;;;;6.93;1.80;;;18.00;99.90;;;;;;6279190;22;20150;-84
2023/08/08 10:20:47;;;;;;;9.13;1.77;;;17.90;99.90;;;;;;6304851;22;20022;-84
2023/08/08 10:23:20;;;;;;;9.43;2.47;;;17.70;99.90;;;;;;6278193;22;20458;-87
2023/08/08 10:26:05;;;;;;;;;;;;;;;;;;;;;
2023/08/08 10:29:17;;;;;;;8.45;2.00;;;16.70;99.90;;;;;;6279054;22;20013;-85
2023/08/08 10:32:04;;;;;;;6.25;2.08;;;16.10;99.90;;;;;;6306236;22;20015;-85
2023/08/08 10:34:58;;;;;;;6.80;1.83;;;16.30;99.90;;;;;;6277816;22;20023;-84
2023/08/08 10:37:57;;;;;;;10.07;2.05;;;16.70;99.90;;;;;;6304779;22;20054;-85
2023/08/08 10:40:37;;;;;;;7.25;1.90;;;17.00;99.90;;;;;;6305978;22;20027;-84
2023/08/08 10:43:14;;;;;;;9.02;2.25;;;17.30;99.90;;;;;;6278631;22;20335;-84
2023/08/08 10:45:52;;;;;;;7.65;2.08;;;17.40;99.90;;;;;;6278921;22;20073;-85
2023/08/08 10:48:26;;;;;;;8.65;2.05;;;17.50;99.90;;;;;;6278871;22;20015;-84
2023/08/08 10:51:06;;;;;;;5.20;1.77;;;17.60;99.90;;;;;;6302625;22;20045;-85
2023/08/08 10:53:37;;;;;;;9.93;2.20;;;18.00;99.90;;;;;;6279040;22;20447;-86
2023/08/08 10:56:18;;;;;;;5.53;1.70;;;18.00;99.90;;;;;;6306981;22;20023;-86
2023/08/08 10:59:00;;;;;;;10.75;2.13;;;17.30;99.90;;;;;;6305250;22;20428;-86
2023/08/08 11:02:10;;;;;;;7.22;1.85;;;18.20;99.90;;;;;;6306419;22;20080;-85
2023/08/08 11:08:06;;;;;;;7.32;2.10;;;17.40;99.90;;;;;;6291141;22;20431;-86
2023/08/08 11:10:42;;;;;;;7.95;1.80;;;16.60;99.90;;;;;;6280738;22;20106;-85
2023/08/08 11:17:45;;;;;;;7.55;1.98;;;16.80;99.90;;;;;;6159545;23;20021;-85
2023/08/08 11:24:50;;;;;;;7.70;2.20;;;17.20;99.90;;;;;;6301772;22;20023;-86
2023/08/08 11:33:51;;;;;;;7.82;2.10;;;17.10;99.90;;;;;;6305706;22;20023;-85
2023/08/08 11:37:11;;;;;;;9.05;2.17;;;17.00;99.90;;;;;;6280458;22;20034;-86
2023/08/08 11:40:28;;;;;;;10.13;2.20;;;17.20;99.90;;;;;;6278154;22;20019;-86
2023/08/08 12:10:05;;;;;;;6.55;1.95;;;17.10;99.90;;;;;;6182127;23;20398;-85
2023/08/08 12:19:20;;;;;;;;;;;;;;;;;;;;;
2023/08/08 12:22:55;;;;;;;5.90;2.20;;;16.60;99.90;;;;;;6217404;22;20065;-86
2023/08/08 12:25:50;;;;;;;6.55;2.10;;;16.80;99.90;;;;;;6244383;22;20056;-87
2023/08/08 12:42:00;;;;;;;;;;;;;;;;;;;;;
2023/08/08 12:44:35;;;;;;;8.63;2.10;;;18.10;99.90;;;;;;6200559;22;20023;-86
2023/08/08 12:47:21;;;;;;;4.93;1.70;;;18.00;99.90;;;;;;6275582;22;20014;-88
2023/08/08 12:49:51;;;;;;;10.43;2.10;;;18.30;99.90;;;;;;6250054;22;20020;-87
2023/08/08 12:52:27;;;;;;;6.15;2.10;;;18.60;99.90;;;;;;6246650;22;20439;-87
2023/08/08 12:55:29;;;;;;;5.63;1.67;;;18.90;99.90;;;;;;6220955;22;20015;-88
2023/08/08 12:58:07;;;;;;;7.47;1.83;;;18.40;99.90;;;;;;6304363;22;20055;-88
2023/08/08 13:01:32;;;;;;;;;;;;;;;;;;;;;
2023/08/08 13:05:07;;;;;;;8.93;1.90;;;19.60;99.90;;;;;;6288521;22;20106;-86
2023/08/08 13:07:57;;;;;;;7.68;1.90;;;19.30;99.90;;;;;;6307264;22;20031;-86
2023/08/08 13:10:24;;;;;;;7.18;1.70;;;19.10;99.90;;;;;;6180440;23;20438;-86
2023/08/08 13:12:55;;;;;;;5.72;1.77;;;19.10;99.90;;;;;;6157347;23;20028;-87
2023/08/08 13:15:51;;;;;;;5.88;1.70;;;18.90;99.90;;;;;;6157869;23;20029;-87
2023/08/08 13:19:24;;;;;;;9.00;1.98;;;18.70;99.90;;;;;;6181284;23;20147;-87
2023/08/08 13:22:04;;;;;;;6.53;1.70;;;18.90;99.90;;;;;;6121217;23;20024;-89
2023/08/08 13:24:33;;;;;;;7.30;1.90;;;19.30;99.90;;;;;;6183353;22;20098;-89
2023/08/08 13:27:17;;;;;;;8.32;2.17;;;19.80;99.90;;;;;;6278925;22;20007;-92
2023/08/08 13:29:46;;;;;;;7.63;2.05;;;19.80;99.90;;;;;;6279502;22;20030;-90
2023/08/08 13:32:33;;;;;;;5.70;1.77;;;19.30;99.90;;;;;;6275820;22;20023;-87
2023/08/08 13:35:51;;;;;;;8.10;2.03;;;18.70;99.90;;;;;;6279457;22;20106;-87
2023/08/08 13:38:48;;;;;;;7.45;2.03;;;18.30;99.90;;;;;;6307303;22;20080;-87
2023/08/08 13:44:57;;;;;;;6.78;2.10;;;18.00;99.90;;;;;;6306848;22;20368;-90
2023/08/08 13:48:15;;;;;;;6.97;1.80;;;18.50;99.90;;;;;;6278655;22;20026;-88
2023/08/08 13:50:51;;;;;;;;;;;;;;;;;;;;;
2023/08/08 13:54:01;;;;;;;5.78;1.92;;;18.10;99.90;;;;;;6156038;23;20358;-85
2023/08/08 13:56:42;;;;;;;7.10;1.90;;;18.00;99.90;;;;;;6156682;23;20017;-85
2023/08/08 13:59:12;;;;;;;12.35;2.33;;;17.50;99.90;;;;;;6156547;23;20059;-86
2023/08/08 14:01:46;;;;;;;7.32;1.98;;;18.50;99.90;;;;;;6167634;22;20020;-85
2023/08/08 14:04:23;;;;;;;;;;;18.70;99.90;;;;;;6307625;22;20018;-85
2023/08/08 14:10:54;;;;;;;8.05;2.00;;;19.80;99.90;;;;;;6306010;22;20122;-84
2023/08/08 14:13:35;;;;;;;6.00;1.80;;;19.30;99.90;;;;;;6306373;22;20099;-86
2023/08/08 14:16:07;;;;;;;7.97;1.92;;;19.20;99.90;;;;;;6305974;22;20072;-86
2023/08/08 14:18:44;;;;;;;7.93;1.75;;;19.30;99.90;;;;;;6306539;22;20007;-85
2023/08/08 14:21:38;;;;;;;7.13;1.67;;;19.40;99.90;;;;;;6305874;22;20019;-84
2023/08/08 14:24:23;;;;;;;7.57;1.83;;;18.90;99.90;;;;;;6279584;22;20022;-85
2023/08/08 14:26:52;;;;;;;9.35;2.00;;;18.50;99.90;;;;;;6244709;22;20238;-84
2023/08/08 14:32:14;;;;;;;6.07;1.90;;;18.70;99.90;;;;;;6302261;22;20023;-85
2023/08/08 14:34:57;;;;;;;5.70;1.70;;;18.80;99.90;;;;;;6278382;22;20019;-85
2023/08/08 14:37:27;;;;;;;9.75;2.10;;;19.70;99.90;;;;;;6292072;22;20511;-84
2023/08/08 14:39:59;;;;;;;6.32;1.70;;;18.90;99.90;;;;;;6309313;22;20614;-85
2023/08/08 14:42:25;;;;;;;6.82;1.70;;;19.00;99.90;;;;;;6279941;22;20015;-84
2023/08/08 14:44:56;;;;;;;6.40;1.88;;;19.30;99.90;;;;;;6280496;22;20042;-88
2023/08/08 14:47:31;;;;;;;6.28;1.70;;;19.60;99.90;;;;;;6280967;22;20039;-85
2023/08/08 14:49:57;;;;;;;5.63;1.80;;;19.60;99.90;;;;;;6279568;22;20455;-84
2023/08/08 14:52:25;;;;;;;7.70;1.70;;;19.40;99.90;;;;;;6307064;22;20018;-83
2023/08/08 14:55:01;;;;;;;7.40;2.00;;;19.20;99.90;;;;;;6280495;22;20065;-84
2023/08/08 14:57:41;;;;;;;6.60;1.67;;;18.90;99.90;;;;;;6307346;22;20016;-84
2023/08/08 15:00:09;;;;;;;5.82;1.58;;;19.00;99.90;;;;;;6308245;22;20114;-85
2023/08/08 15:02:40;;;;;;;8.32;1.70;;;18.90;99.90;;;;;;6308033;22;20019;-85
2023/08/08 15:05:06;;;;;;;7.32;2.03;;;18.70;99.90;;;;;;6308247;22;20056;-84
2023/08/08 15:07:32;;;;;;;6.85;1.80;;;18.60;99.90;;;;;;6308128;22;20065;-84
2023/08/08 15:09:58;;;;;;;6.13;1.60;;;18.20;99.90;;;;;;6280264;22;20019;-85
2023/08/08 15:12:23;;;;;;;8.15;2.00;;;18.10;99.90;;;;;;6279431;22;20015;-85
2023/08/08 15:14:50;;;;;;;7.57;1.98;;;17.90;99.90;;;;;;6280428;22;20046;-85
2023/08/08 15:17:41;;;;;;;6.20;1.92;;;18.00;99.90;;;;;;6276396;22;20019;-85
2023/08/08 15:20:22;;;;;;;8.90;2.15;;;17.80;99.90;;;;;;6278872;22;20057;-85
2023/08/08 15:23:00;;;;;;;6.63;1.90;;;18.40;99.90;;;;;;6280204;22;20096;-84
2023/08/08 15:25:41;;;;;;;9.25;2.00;;;18.60;99.90;;;;;;6279320;22;20019;-86
2023/08/08 15:28:07;;;;;;;7.28;2.05;;;18.80;99.90;;;;;;6280958;22;20510;-86
2023/08/08 15:30:40;;;;;;;6.70;1.90;;;19.00;99.90;;;;;;6279753;22;20443;-86
2023/08/08 15:33:05;;;;;;;6.47;1.73;;;18.90;99.90;;;;;;6306866;22;20339;-87
2023/08/08 15:35:31;;;;;;;7.15;1.90;;;19.10;99.90;;;;;;6280723;22;20118;-86
2023/08/08 15:38:12;;;;;;;7.15;1.75;;;19.50;99.90;;;;;;6309196;22;20106;-86
2023/08/08 15:41:15;;;;;;;8.65;1.90;;;19.10;99.90;;;;;;6307486;22;20086;-86
2023/08/08 15:44:18;;;;;;;7.25;1.70;;;19.20;99.90;;;;;;6308183;22;20096;-85
2023/08/08 15:47:01;;;;;;;8.13;2.05;;;18.20;99.90;;;;;;6276749;22;20156;-85
2023/08/08 15:50:15;;;;;;;7.53;1.77;;;18.00;99.90;;;;;;6279940;22;20053;-86
2023/08/08 15:53:01;;;;;;;6.82;1.70;;;17.80;99.90;;;;;;6274989;22;20705;-86
2023/08/08 15:58:41;;;;;;;6.10;1.80;;;17.50;99.90;;;;;;6182765;23;20327;-86
2023/08/08 16:02:11;;;;;;;5.78;1.80;;;17.70;99.90;;;;;;6134801;23;20084;-88
2023/08/08 16:04:57;;;;;;;5.88;1.85;;;17.40;99.90;;;;;;6268031;22;20378;-85
2023/08/08 16:07:30;;;;;;;8.45;2.22;;;17.70;99.90;;;;;;6292218;22;20100;-83
2023/08/08 16:10:07;;;;;;;7.45;1.67;;;17.80;99.90;;;;;;6307391;22;20061;-84
2023/08/08 16:12:35;;;;;;;7.68;2.10;;;17.90;99.90;;;;;;6279880;22;20016;-84
2023/08/08 16:15:01;;;;;;;8.45;1.88;;;18.00;99.90;;;;;;6306656;22;20062;-85
2023/08/08 16:17:27;;;;;;;6.30;1.80;;;18.10;99.90;;;;;;6308004;22;20011;-83
2023/08/08 16:19:52;;;;;;;8.40;1.85;;;18.20;99.90;;;;;;6307321;22;20024;-85